createdAt,value
2024-04-19T00:01:45.084Z,83.56
2024-04-19T00:04:11.874Z,83.55
2024-04-19T00:06:38.507Z,84.09
2024-04-19T00:09:05.043Z,83.98
2024-04-19T00:11:31.530Z,84.48
2024-04-19T00:13:58.075Z,84.59
2024-04-19T00:16:26.421Z,84.67
2024-04-19T00:18:53.106Z,84.51
2024-04-19T00:21:20.707Z,84.33
2024-04-19T00:23:47.223Z,84.87
2024-04-19T00:26:13.742Z,84.76
2024-04-19T00:28:40.643Z,85.09
2024-04-19T00:31:07.296Z,84.99
2024-04-19T00:33:34.171Z,85.15
2024-04-19T00:36:00.738Z,85.28
2024-04-19T00:38:27.233Z,85.29
2024-04-19T00:40:55.807Z,85.24
2024-04-19T00:43:22.335Z,85.30
2024-04-19T00:45:48.994Z,85.54
2024-04-19T00:48:20.981Z,85.47
2024-04-19T00:50:54.382Z,85.46
2024-04-19T00:53:27.522Z,85.36
2024-04-19T00:55:56.675Z,85.79
2024-04-19T00:58:23.897Z,85.53
2024-04-19T01:00:51.778Z,85.95
2024-04-19T01:03:18.340Z,85.80
2024-04-19T01:05:44.922Z,85.67
2024-04-19T01:08:11.986Z,85.73
2024-04-19T01:10:40.357Z,85.72
2024-04-19T01:13:07.627Z,86.21
2024-04-19T01:15:37.098Z,86.13
2024-04-19T01:18:04.804Z,86.34
2024-04-19T01:20:31.471Z,85.92
2024-04-19T01:22:58.870Z,85.92
2024-04-19T01:25:37.085Z,86.16
2024-04-19T01:28:08.605Z,86.34
2024-04-19T01:30:36.308Z,86.24
2024-04-19T01:33:02.932Z,86.54
2024-04-19T01:35:29.763Z,86.11
2024-04-19T01:37:56.342Z,86.48
2024-04-19T01:40:23.163Z,86.51
2024-04-19T01:42:50.688Z,86.27
2024-04-19T01:45:17.284Z,86.95
2024-04-19T01:47:44.358Z,86.80
2024-04-19T01:50:10.953Z,86.79
2024-04-19T01:52:37.507Z,87.08
2024-04-19T01:55:04.821Z,86.85
2024-04-19T01:57:31.813Z,86.61
2024-04-19T01:59:58.394Z,86.70
2024-04-19T02:02:28.106Z,86.81
2024-04-19T02:04:54.670Z,86.75
2024-04-19T02:07:21.576Z,86.78
2024-04-19T02:09:48.339Z,87.00
2024-04-19T02:12:14.973Z,87.11
2024-04-19T02:14:41.490Z,87.14
2024-04-19T02:17:08.251Z,87.33
2024-04-19T02:19:37.651Z,87.22
2024-04-19T02:22:05.958Z,87.72
2024-04-19T02:24:34.030Z,87.83
2024-04-19T02:27:02.089Z,87.68
2024-04-19T02:29:47.446Z,87.71
2024-04-19T02:32:14.418Z,87.74
2024-04-19T02:34:44.760Z,87.71
2024-04-19T02:37:12.700Z,87.63
2024-04-19T02:39:39.516Z,87.75
2024-04-19T02:42:06.090Z,87.86
2024-04-19T02:44:32.598Z,88.68
2024-04-19T02:46:59.137Z,87.99
2024-04-19T02:49:25.724Z,88.29
2024-04-19T02:51:53.672Z,88.36
2024-04-19T02:54:20.395Z,88.88
2024-04-19T02:56:46.906Z,88.30
2024-04-19T02:59:13.398Z,88.50
2024-04-19T03:01:39.898Z,89.06
2024-04-19T03:04:06.512Z,88.60
2024-04-19T03:06:33.171Z,88.98
2024-04-19T03:09:02.760Z,89.02
2024-04-19T03:11:29.677Z,88.89
2024-04-19T03:13:56.305Z,89.34
2024-04-19T03:16:22.801Z,89.32
2024-04-19T03:18:51.474Z,89.56
2024-04-19T03:21:18.271Z,89.27
2024-04-19T03:23:44.842Z,89.59
2024-04-19T03:26:11.751Z,89.90
2024-04-19T03:28:38.321Z,89.81
2024-04-19T03:31:08.529Z,89.98
2024-04-19T03:33:35.326Z,90.10
2024-04-19T03:36:06.888Z,90.17
2024-04-19T03:38:33.510Z,90.13
2024-04-19T03:41:00.036Z,90.58
2024-04-19T03:43:33.333Z,90.48
2024-04-19T03:46:01.478Z,90.49
2024-04-19T03:48:28.149Z,90.64
2024-04-19T03:50:54.759Z,90.54
2024-04-19T03:53:22.409Z,90.85
2024-04-19T03:55:49.218Z,90.78
2024-04-19T03:58:15.841Z,90.66
2024-04-19T04:00:42.543Z,90.51
2024-04-19T04:03:09.805Z,90.75
2024-04-19T04:05:36.440Z,90.93
2024-04-19T04:08:03.270Z,91.04
2024-04-19T04:10:29.766Z,91.24
2024-04-19T04:12:58.244Z,91.05
2024-04-19T04:15:25.080Z,91.07
2024-04-19T04:17:51.755Z,91.46
2024-04-19T04:20:18.393Z,91.14
2024-04-19T04:22:44.887Z,91.39
2024-04-19T04:25:11.576Z,91.58
2024-04-19T04:27:38.079Z,91.31
2024-04-19T04:30:05.083Z,91.82
2024-04-19T04:32:31.689Z,91.50
2024-04-19T04:34:58.446Z,92.31
2024-04-19T04:37:25.036Z,92.87
2024-04-19T04:39:51.732Z,92.43
2024-04-19T04:42:18.323Z,92.58
2024-04-19T04:44:44.857Z,92.34
2024-04-19T04:47:11.735Z,92.80
2024-04-19T04:49:38.251Z,93.04
2024-04-19T04:52:04.914Z,92.83
2024-04-19T04:54:31.455Z,92.86
2024-04-19T04:56:58.173Z,93.09
2024-04-19T04:59:24.708Z,92.76
2024-04-19T05:01:51.749Z,93.04
2024-04-19T05:04:18.331Z,93.10
2024-04-19T05:06:45.079Z,93.27
2024-04-19T05:09:11.794Z,93.43
2024-04-19T05:11:38.338Z,93.02
2024-04-19T05:14:04.938Z,93.36
2024-04-19T05:16:31.459Z,93.07
2024-04-19T05:18:58.072Z,93.24
2024-04-19T05:21:24.674Z,93.48
2024-04-19T05:23:51.715Z,92.95
2024-04-19T05:26:18.312Z,93.22
2024-04-19T05:28:44.966Z,93.50
2024-04-19T05:31:11.713Z,93.53
2024-04-19T05:33:38.270Z,93.56
2024-04-19T05:36:05.241Z,93.31
2024-04-19T05:38:31.787Z,93.45
2024-04-19T05:40:58.347Z,93.23
2024-04-19T05:43:24.869Z,93.43
2024-04-19T05:45:51.858Z,93.40
2024-04-19T05:48:21.695Z,93.47
2024-04-19T05:50:49.108Z,93.43
2024-04-19T05:53:15.679Z,93.58
2024-04-19T05:55:45.422Z,93.40
2024-04-19T05:58:13.218Z,93.65
2024-04-19T06:00:39.865Z,93.85
2024-04-19T06:03:06.694Z,93.38
2024-04-19T06:05:33.303Z,93.32
2024-04-19T06:07:59.906Z,93.28
2024-04-19T06:10:26.444Z,93.27
2024-04-19T06:12:53.172Z,93.06
2024-04-19T06:15:20.257Z,93.38
2024-04-19T06:17:46.857Z,93.94
2024-04-19T06:20:13.478Z,93.45
2024-04-19T06:22:40.029Z,92.91
2024-04-19T06:25:06.694Z,93.07
2024-04-19T06:27:33.280Z,92.88
2024-04-19T06:29:59.872Z,92.78
2024-04-19T06:32:26.526Z,92.63
2024-04-19T06:34:53.095Z,92.80
2024-04-19T06:37:19.878Z,92.70
2024-04-19T06:39:54.831Z,92.80
2024-04-19T06:42:29.018Z,92.38
2024-04-19T06:44:55.781Z,92.62
2024-04-19T06:47:22.449Z,92.76
2024-04-19T06:49:49.072Z,92.71
2024-04-19T06:52:15.621Z,92.36
2024-04-19T06:54:42.244Z,92.34
2024-04-19T06:57:09.076Z,92.49
2024-04-19T06:59:35.648Z,92.15
2024-04-19T07:02:02.321Z,92.72
2024-04-19T07:04:29.012Z,92.10
2024-04-19T07:06:55.632Z,92.13
2024-04-19T07:09:23.281Z,91.94
2024-04-19T07:11:50.715Z,92.16
2024-04-19T07:14:17.267Z,91.94
2024-04-19T07:16:44.115Z,92.18
2024-04-19T07:19:10.785Z,92.27
2024-04-19T07:21:37.319Z,92.29
2024-04-19T07:24:03.976Z,92.25
2024-04-19T07:26:30.530Z,92.03
2024-04-19T07:28:59.596Z,91.75
2024-04-19T07:31:26.167Z,91.20
2024-04-19T07:33:55.597Z,90.83
2024-04-19T07:36:22.142Z,91.01
2024-04-19T07:38:48.757Z,90.44
2024-04-19T07:41:16.898Z,90.48
2024-04-19T07:43:49.787Z,90.73
2024-04-19T07:46:20.607Z,91.19
2024-04-19T07:48:47.378Z,90.48
2024-04-19T07:51:13.984Z,90.61
2024-04-19T07:53:40.497Z,90.66
2024-04-19T07:56:07.131Z,90.25
2024-04-19T07:58:35.017Z,90.08
2024-04-19T08:01:01.853Z,90.25
2024-04-19T08:03:28.579Z,90.74
2024-04-19T08:05:55.196Z,90.06
2024-04-19T08:08:21.874Z,89.99
2024-04-19T08:10:48.368Z,89.96
2024-04-19T08:13:14.883Z,90.23
2024-04-19T08:15:41.442Z,90.35
2024-04-19T08:18:08.056Z,90.49
2024-04-19T08:20:34.662Z,90.32
2024-04-19T08:23:01.215Z,90.16
2024-04-19T08:25:27.764Z,89.84
2024-04-19T08:27:54.555Z,90.60
2024-04-19T08:30:22.220Z,89.85
2024-04-19T08:32:49.072Z,90.34
2024-04-19T08:35:15.716Z,90.33
2024-04-19T08:37:42.301Z,90.34
2024-04-19T08:40:22.378Z,90.50
2024-04-19T08:42:49.179Z,90.28
2024-04-19T08:45:21.299Z,90.65
2024-04-19T08:47:50.155Z,90.34
2024-04-19T08:50:19.704Z,89.97
2024-04-19T08:53:09.260Z,89.83
2024-04-19T08:55:38.268Z,89.01
2024-04-19T08:58:05.999Z,88.54
2024-04-19T09:00:32.563Z,88.41
2024-04-19T09:02:59.635Z,87.67
2024-04-19T09:05:26.376Z,88.06
2024-04-19T09:07:53.134Z,87.58
2024-04-19T09:10:20.347Z,87.78
2024-04-19T09:12:47.082Z,88.02
2024-04-19T09:15:13.598Z,87.77
2024-04-19T09:17:40.271Z,87.86
2024-04-19T09:20:07.241Z,87.17
2024-04-19T09:22:33.812Z,87.70
2024-04-19T09:25:00.446Z,86.87
2024-04-19T09:27:28.834Z,86.72
2024-04-19T09:32:24.978Z,85.95
2024-04-19T09:34:52.072Z,86.04
2024-04-19T09:37:18.749Z,84.89
2024-04-19T09:39:45.325Z,84.14
2024-04-19T09:42:11.937Z,85.77
2024-04-19T09:44:42.118Z,85.12
2024-04-19T09:47:11.872Z,85.30
2024-04-19T09:49:44.025Z,83.88
2024-04-19T09:52:20.630Z,84.42
2024-04-19T09:54:53.567Z,83.81
2024-04-19T09:57:23.028Z,83.28
2024-04-19T09:59:49.945Z,83.10
2024-04-19T10:02:24.650Z,83.33
2024-04-19T10:04:56.357Z,82.62
2024-04-19T10:07:24.811Z,83.62
2024-04-19T10:09:54.933Z,84.38
2024-04-19T10:12:22.612Z,83.43
2024-04-19T10:14:49.180Z,83.42
2024-04-19T10:17:15.760Z,83.07
2024-04-19T10:19:52.186Z,82.78
2024-04-19T10:22:25.763Z,81.48
2024-04-19T10:24:59.474Z,82.04
2024-04-19T10:27:30.049Z,81.80
2024-04-19T10:30:01.076Z,82.10
2024-04-19T10:32:29.303Z,82.93
2024-04-19T10:34:56.070Z,81.47
2024-04-19T10:37:22.745Z,81.08
2024-04-19T10:39:49.361Z,81.19
2024-04-19T10:42:20.210Z,81.35
2024-04-19T10:44:49.382Z,82.15
2024-04-19T10:47:17.163Z,82.39
2024-04-19T10:49:45.315Z,82.71
2024-04-19T10:52:12.183Z,83.15
2024-04-19T10:54:38.880Z,83.20
2024-04-19T10:57:05.587Z,83.71
2024-04-19T10:59:32.243Z,83.63
2024-04-19T11:02:01.290Z,83.74
2024-04-19T11:04:28.241Z,83.80
2024-04-19T11:06:54.996Z,83.81
2024-04-19T11:09:22.188Z,84.02
2024-04-19T11:11:49.333Z,84.18
2024-04-19T11:14:20.081Z,84.29
2024-04-19T11:16:47.196Z,84.25
2024-04-19T11:19:17.374Z,83.62
2024-04-19T11:21:44.900Z,82.80
2024-04-19T11:24:11.725Z,82.87
2024-04-19T11:26:38.684Z,83.20
2024-04-19T11:29:06.242Z,83.67
2024-04-19T11:31:33.806Z,83.79
2024-04-19T11:34:01.422Z,84.23
2024-04-19T11:36:28.188Z,83.63
2024-04-19T11:38:59.300Z,84.53
2024-04-19T11:41:25.885Z,84.47
2024-04-19T11:43:52.888Z,84.67
2024-04-19T11:46:22.773Z,84.75
2024-04-19T11:48:49.440Z,83.97
2024-04-19T11:51:16.501Z,84.72
2024-04-19T11:53:43.014Z,85.15
2024-04-19T11:56:09.602Z,85.47
2024-04-19T11:58:36.412Z,85.57
2024-04-19T12:01:03.111Z,85.05
2024-04-19T12:03:31.618Z,84.50
2024-04-19T12:05:59.273Z,83.82
2024-04-19T12:08:26.183Z,83.35
2024-04-19T12:10:53.064Z,82.75
2024-04-19T12:14:07.773Z,81.86
2024-04-19T12:16:35.519Z,81.59
2024-04-19T12:18:54.248Z,81.92
2024-04-19T12:21:21.271Z,82.60
2024-04-19T12:23:49.523Z,82.08
2024-04-19T12:26:19.230Z,82.75
2024-04-19T12:28:54.063Z,81.07
2024-04-19T12:31:24.163Z,80.88
2024-04-19T12:33:51.113Z,80.19
2024-04-19T12:36:17.679Z,80.85
2024-04-19T12:38:44.239Z,81.89
2024-04-19T12:41:10.802Z,80.98
2024-04-19T12:43:37.888Z,80.11
2024-04-19T12:46:04.724Z,81.09
2024-04-19T12:48:31.658Z,81.34
2024-04-19T12:50:58.991Z,81.38
2024-04-19T12:53:25.501Z,81.95
2024-04-19T12:55:52.519Z,82.35
2024-04-19T12:58:19.709Z,81.96
2024-04-19T13:00:46.458Z,81.73
2024-04-19T13:03:13.250Z,81.98
2024-04-19T13:05:40.116Z,81.63
2024-04-19T13:08:07.083Z,81.77
2024-04-19T13:10:33.683Z,81.31
2024-04-19T13:13:00.354Z,81.15
2024-04-19T13:15:26.991Z,79.95
2024-04-19T13:17:53.620Z,80.42
2024-04-19T13:20:20.159Z,80.18
2024-04-19T13:22:46.661Z,80.64
2024-04-19T13:25:13.381Z,81.07
2024-04-19T13:27:40.178Z,79.86
2024-04-19T13:30:07.460Z,79.96
2024-04-19T13:32:34.915Z,78.40
2024-04-19T13:35:01.814Z,77.97
2024-04-19T13:37:28.503Z,77.17
2024-04-19T13:39:55.121Z,77.91
2024-04-19T13:42:22.365Z,76.97
2024-04-19T13:44:49.044Z,76.33
2024-04-19T13:47:15.670Z,76.95
2024-04-19T13:49:42.266Z,76.01
2024-04-19T13:52:09.087Z,74.69
2024-04-19T13:54:35.873Z,73.13
2024-04-19T13:57:02.579Z,72.46
2024-04-19T13:59:29.356Z,73.06
2024-04-19T14:01:57.086Z,73.56
2024-04-19T14:04:23.784Z,73.60
2024-04-19T14:06:51.145Z,73.45
2024-04-19T14:09:17.729Z,73.81
2024-04-19T14:11:45.776Z,74.54
2024-04-19T14:14:12.491Z,74.59
2024-04-19T14:16:39.112Z,74.45
2024-04-19T14:19:05.649Z,73.34
2024-04-19T14:21:32.643Z,72.66
2024-04-19T14:23:59.219Z,72.91
2024-04-19T14:26:25.834Z,72.24
2024-04-19T14:28:52.818Z,71.17
2024-04-19T14:31:19.403Z,71.55
2024-04-19T14:33:45.982Z,72.37
2024-04-19T14:36:12.644Z,71.47
2024-04-19T14:38:39.163Z,72.68
2024-04-19T14:41:06.945Z,73.69
2024-04-19T14:43:38.731Z,73.52
2024-04-19T14:46:06.771Z,74.71
2024-04-19T14:48:34.597Z,74.04
2024-04-19T14:51:01.410Z,74.68
2024-04-19T14:53:28.045Z,75.56
2024-04-19T14:55:55.675Z,74.82
2024-04-19T14:58:22.437Z,74.44
2024-04-19T15:00:51.331Z,74.13
2024-04-19T15:03:18.330Z,76.07
2024-04-19T15:05:44.998Z,76.81
2024-04-19T15:08:11.532Z,77.27
2024-04-19T15:10:40.065Z,77.38
2024-04-19T15:13:06.959Z,78.60
2024-04-19T15:15:33.903Z,78.07
2024-04-19T15:18:00.768Z,78.40
2024-04-19T15:20:27.727Z,77.88
2024-04-19T15:22:59.087Z,77.04
2024-04-19T15:25:26.591Z,77.15
2024-04-19T15:27:53.221Z,76.58
2024-04-19T15:30:19.906Z,76.55
2024-04-19T15:32:47.637Z,76.27
2024-04-19T15:35:14.588Z,76.26
2024-04-19T15:37:43.062Z,76.37
2024-04-19T15:40:10.080Z,76.48
2024-04-19T15:42:36.818Z,76.46
2024-04-19T15:45:03.771Z,75.75
2024-04-19T15:47:30.402Z,76.12
2024-04-19T15:49:57.158Z,75.25
2024-04-19T15:52:23.730Z,75.85
2024-04-19T15:54:52.883Z,75.43
2024-04-19T15:57:20.027Z,75.27
2024-04-19T15:59:46.559Z,74.87
2024-04-19T16:02:13.901Z,75.17
2024-04-19T16:04:40.487Z,75.84
2024-04-19T16:07:07.224Z,75.96
2024-04-19T16:09:33.868Z,75.74
2024-04-19T16:12:01.137Z,75.67
2024-04-19T16:14:27.962Z,75.45
2024-04-19T16:16:54.565Z,75.61
2024-04-19T16:19:21.501Z,76.55
2024-04-19T16:21:48.073Z,75.69
2024-04-19T16:24:14.594Z,75.97
2024-04-19T16:26:41.123Z,74.98
2024-04-19T16:29:07.686Z,74.29
2024-04-19T16:31:34.197Z,73.13
2024-04-19T16:34:00.883Z,73.15
2024-04-19T16:36:29.199Z,73.13
2024-04-19T16:38:56.343Z,71.72
2024-04-19T16:41:23.148Z,71.27
2024-04-19T16:43:49.712Z,71.57
2024-04-19T16:46:16.283Z,72.20
2024-04-19T16:48:43.721Z,71.89
2024-04-19T16:51:10.316Z,72.60
2024-04-19T16:53:36.890Z,72.98
2024-04-19T16:56:06.238Z,73.00
2024-04-19T16:58:34.677Z,72.44
2024-04-19T17:01:01.598Z,72.68
2024-04-19T17:03:28.295Z,73.31
2024-04-19T17:05:54.869Z,73.62
2024-04-19T17:08:21.687Z,73.62
2024-04-19T17:10:49.189Z,73.54
2024-04-19T17:13:15.988Z,73.27
2024-04-19T17:15:42.578Z,73.19
2024-04-19T17:18:09.169Z,72.22
2024-04-19T17:20:37.451Z,72.19
2024-04-19T17:23:04.082Z,71.96
2024-04-19T17:25:30.695Z,73.66
2024-04-19T17:27:59.135Z,73.66
2024-04-19T17:30:25.722Z,74.02
2024-04-19T17:32:52.872Z,73.93
2024-04-19T17:35:19.618Z,74.41
2024-04-19T17:37:46.184Z,74.13
2024-04-19T17:40:12.716Z,74.72
2024-04-19T17:42:39.294Z,74.47
2024-04-19T17:45:06.137Z,74.60
2024-04-19T17:47:32.915Z,74.96
2024-04-19T17:49:59.583Z,74.98
2024-04-19T17:52:26.181Z,75.38
2024-04-19T17:54:52.777Z,75.19
2024-04-19T17:57:19.351Z,74.90
2024-04-19T17:59:45.957Z,75.04
2024-04-19T18:02:14.115Z,75.16
2024-04-19T18:07:07.310Z,75.05
2024-04-19T18:09:33.914Z,75.59
2024-04-19T18:12:00.516Z,75.51
2024-04-19T18:14:27.103Z,75.77
2024-04-19T18:16:56.546Z,75.83
2024-04-19T18:19:26.817Z,75.82
2024-04-19T18:21:53.783Z,75.52
2024-04-19T18:24:24.520Z,75.80
2024-04-19T18:26:51.625Z,75.69
2024-04-19T18:29:18.127Z,75.95
2024-04-19T18:31:44.749Z,75.81
2024-04-19T18:34:16.923Z,75.90
2024-04-19T18:36:45.938Z,76.28
2024-04-19T18:39:13.111Z,76.22
2024-04-19T18:41:40.340Z,75.58
2024-04-19T18:44:07.079Z,75.78
2024-04-19T18:46:33.666Z,76.07
2024-04-19T18:49:00.468Z,75.78
2024-04-19T18:51:27.130Z,75.85
2024-04-19T18:53:54.440Z,75.89
2024-04-19T18:56:21.095Z,75.64
2024-04-19T18:58:48.658Z,75.74
2024-04-19T19:01:19.155Z,75.81
2024-04-19T19:03:47.947Z,75.66
2024-04-19T19:06:15.780Z,75.39
2024-04-19T19:08:42.354Z,75.80
2024-04-19T19:11:15.154Z,75.89
2024-04-19T19:13:44.536Z,75.83
2024-04-19T19:16:11.367Z,75.84
2024-04-19T19:18:38.094Z,76.39
2024-04-19T19:21:05.051Z,76.54
2024-04-19T19:23:32.049Z,76.50
2024-04-19T19:26:07.183Z,76.67
2024-04-19T19:28:34.096Z,76.69
2024-04-19T19:31:00.840Z,77.14
2024-04-19T19:33:27.843Z,77.13
2024-04-19T19:35:58.864Z,77.64
2024-04-19T19:38:25.470Z,77.81
2024-04-19T19:40:52.092Z,77.71
2024-04-19T19:43:21.458Z,77.97
2024-04-19T19:46:00.813Z,77.70
2024-04-19T19:48:30.016Z,77.89
2024-04-19T19:50:58.374Z,78.71
2024-04-19T19:53:25.079Z,79.66
2024-04-19T19:55:51.772Z,80.25
2024-04-19T19:58:19.235Z,80.05
2024-04-19T20:01:04.636Z,80.58
2024-04-19T20:03:49.877Z,80.63
2024-04-19T20:06:16.626Z,80.93
2024-04-19T20:08:43.213Z,81.04
2024-04-19T20:11:09.925Z,81.00
2024-04-19T20:13:37.274Z,80.95
2024-04-19T20:16:04.126Z,81.12
2024-04-19T20:18:30.981Z,81.01
2024-04-19T20:20:59.123Z,81.29
2024-04-19T20:23:25.935Z,81.61
2024-04-19T20:25:52.861Z,81.60
2024-04-19T20:28:19.437Z,80.94
2024-04-19T20:30:46.060Z,81.84
2024-04-19T20:33:12.703Z,81.38
2024-04-19T20:35:39.708Z,81.55
2024-04-19T20:38:06.498Z,81.34
2024-04-19T20:40:33.207Z,81.43
2024-04-19T20:43:14.682Z,81.14
2024-04-19T20:45:46.976Z,81.18
2024-04-19T20:48:13.708Z,81.35
2024-04-19T20:50:40.471Z,81.47
2024-04-19T20:53:07.014Z,81.59
2024-04-19T20:55:38.338Z,81.96
2024-04-19T20:58:05.168Z,82.08
2024-04-19T21:00:34.777Z,82.29
2024-04-19T21:03:01.940Z,82.90
2024-04-19T21:05:29.231Z,82.91
2024-04-19T21:07:55.756Z,83.25
2024-04-19T21:10:24.125Z,83.67
2024-04-19T21:12:51.777Z,83.28
2024-04-19T21:15:19.692Z,83.60
2024-04-19T21:17:46.363Z,83.07
2024-04-19T21:20:12.912Z,82.83
2024-04-19T21:22:39.600Z,83.15
2024-04-19T21:25:06.707Z,82.96
2024-04-19T21:27:34.167Z,82.78
2024-04-19T21:30:00.859Z,82.90
2024-04-19T21:32:29.746Z,82.81
2024-04-19T21:34:56.306Z,83.13
2024-04-19T21:37:23.102Z,83.11
2024-04-19T21:39:53.277Z,83.11
2024-04-19T21:42:22.031Z,83.47
2024-04-19T21:44:52.674Z,83.37
2024-04-19T21:47:19.900Z,83.44
2024-04-19T21:49:46.502Z,82.51
2024-04-19T21:52:13.060Z,82.69
2024-04-19T21:54:39.682Z,83.05
2024-04-19T21:57:06.262Z,83.01
2024-04-19T21:59:32.763Z,82.88
2024-04-19T22:01:59.557Z,82.71
2024-04-19T22:04:26.273Z,83.01
2024-04-19T22:06:53.101Z,82.93
2024-04-19T22:09:19.743Z,82.49
2024-04-19T22:11:46.306Z,82.69
2024-04-19T22:14:12.843Z,82.78
2024-04-19T22:16:39.440Z,83.10
2024-04-19T22:19:06.138Z,83.40
2024-04-19T22:21:32.957Z,82.57
2024-04-19T22:23:59.546Z,83.29
2024-04-19T22:26:26.484Z,83.25
2024-04-19T22:28:53.173Z,83.07
2024-04-19T22:31:19.823Z,83.31
2024-04-19T22:33:46.552Z,83.55
2024-04-19T22:36:13.196Z,82.96
2024-04-19T22:38:39.948Z,83.69
2024-04-19T22:41:06.477Z,83.28
2024-04-19T22:43:35.284Z,83.65
2024-04-19T22:46:05.417Z,83.09
2024-04-19T22:48:32.251Z,83.49
2024-04-19T22:50:59.412Z,83.55
2024-04-19T22:53:25.932Z,83.87
2024-04-19T22:55:56.521Z,83.71
2024-04-19T22:58:23.836Z,84.09
2024-04-19T23:00:51.106Z,83.99
2024-04-19T23:03:18.327Z,83.84
2024-04-19T23:05:44.860Z,84.12
2024-04-19T23:08:11.519Z,83.83
2024-04-19T23:10:38.171Z,84.48
2024-04-19T23:13:06.612Z,84.63
2024-04-19T23:15:34.962Z,84.65
2024-04-19T23:18:02.305Z,84.70
2024-04-19T23:20:29.555Z,84.76
2024-04-19T23:22:56.378Z,84.67
2024-04-19T23:25:23.234Z,84.78
2024-04-19T23:27:49.961Z,84.53
2024-04-19T23:30:16.794Z,83.99
2024-04-19T23:32:43.446Z,84.16
2024-04-19T23:35:10.248Z,84.55
2024-04-19T23:37:38.532Z,84.38
2024-04-19T23:40:06.191Z,84.29
2024-04-19T23:42:32.760Z,83.73
2024-04-19T23:44:59.560Z,83.47
2024-04-19T23:47:29.921Z,83.84
2024-04-19T23:49:57.119Z,83.68
2024-04-19T23:52:23.750Z,83.81
2024-04-19T23:54:51.901Z,83.70
2024-04-19T23:57:18.557Z,83.23
2024-04-19T23:59:45.321Z,83.22
